sensor_id;sensor_type;location;lat;lon;timestamp;P1;P2;P0
77354;PMS7003;66422;51.202;19.936;2024-03-02T00:06:59;63.33;50.33;30.67
77354;PMS7003;66422;51.202;19.936;2024-03-02T00:22:19;67.00;46.33;30.00
77354;PMS7003;66422;51.202;19.936;2024-03-02T00:37:38;69.00;53.00;32.00
77354;PMS7003;66422;51.202;19.936;2024-03-02T00:52:58;62.50;48.00;31.50
77354;PMS7003;66422;51.202;19.936;2024-03-02T01:08:19;65.00;50.00;33.00
77354;PMS7003;66422;51.202;19.936;2024-03-02T01:23:39;63.67;46.67;31.67
77354;PMS7003;66422;51.202;19.936;2024-03-02T01:38:58;58.00;42.00;28.00
77354;PMS7003;66422;51.202;19.936;2024-03-02T01:54:19;60.00;42.00;27.00
77354;PMS7003;66422;51.202;19.936;2024-03-02T02:09:38;58.00;43.00;27.00
77354;PMS7003;66422;51.202;19.936;2024-03-02T02:24:58;62.50;41.50;28.00
77354;PMS7003;66422;51.202;19.936;2024-03-02T02:40:18;39.00;39.00;28.00
77354;PMS7003;66422;51.202;19.936;2024-03-02T02:55:41;57.50;40.25;25.50
77354;PMS7003;66422;51.202;19.936;2024-03-02T03:11:03;62.50;43.00;29.00
77354;PMS7003;66422;51.202;19.936;2024-03-02T03:26:23;56.50;39.00;25.00
77354;PMS7003;66422;51.202;19.936;2024-03-02T03:41:43;60.33;41.67;25.33
77354;PMS7003;66422;51.202;19.936;2024-03-02T03:57:03;52.00;42.33;27.00
77354;PMS7003;66422;51.202;19.936;2024-03-02T04:12:22;53.00;36.00;22.50
77354;PMS7003;66422;51.202;19.936;2024-03-02T04:27:43;51.33;34.67;26.00
77354;PMS7003;66422;51.202;19.936;2024-03-02T04:43:03;44.50;34.50;23.00
77354;PMS7003;66422;51.202;19.936;2024-03-02T04:58:23;59.00;43.50;26.00
77354;PMS7003;66422;51.202;19.936;2024-03-02T05:13:42;57.00;41.00;27.33
77354;PMS7003;66422;51.202;19.936;2024-03-02T05:29:02;49.33;39.33;24.00
77354;PMS7003;66422;51.202;19.936;2024-03-02T05:44:22;47.00;34.00;26.00
77354;PMS7003;66422;51.202;19.936;2024-03-02T05:59:42;56.00;46.50;32.00
77354;PMS7003;66422;51.202;19.936;2024-03-02T06:15:03;53.00;41.00;28.00
77354;PMS7003;66422;51.202;19.936;2024-03-02T06:30:23;53.00;41.00;28.00
77354;PMS7003;66422;51.202;19.936;2024-03-02T06:45:44;46.67;38.67;25.33
77354;PMS7003;66422;51.202;19.936;2024-03-02T07:01:03;58.00;40.00;26.00
77354;PMS7003;66422;51.202;19.936;2024-03-02T07:16:24;57.00;39.50;28.00
77354;PMS7003;66422;51.202;19.936;2024-03-02T07:31:52;57.75;44.50;28.25
77354;PMS7003;66422;51.202;19.936;2024-03-02T07:47:11;56.00;42.00;28.00
77354;PMS7003;66422;51.202;19.936;2024-03-02T08:02:31;61.50;44.00;28.00
77354;PMS7003;66422;51.202;19.936;2024-03-02T08:17:51;61.50;44.00;29.00
77354;PMS7003;66422;51.202;19.936;2024-03-02T08:33:11;55.67;39.67;27.00
77354;PMS7003;66422;51.202;19.936;2024-03-02T08:48:31;57.67;43.67;28.67
77354;PMS7003;66422;51.202;19.936;2024-03-02T09:03:50;58.00;45.00;29.00
77354;PMS7003;66422;51.202;19.936;2024-03-02T09:19:10;56.33;42.33;28.00
77354;PMS7003;66422;51.202;19.936;2024-03-02T09:34:30;63.00;43.00;26.00
77354;PMS7003;66422;51.202;19.936;2024-03-02T09:49:50;59.00;43.00;28.00
77354;PMS7003;66422;51.202;19.936;2024-03-02T10:05:10;59.00;44.00;28.00
77354;PMS7003;66422;51.202;19.936;2024-03-02T10:20:31;66.67;48.33;29.67
77354;PMS7003;66422;51.202;19.936;2024-03-02T10:35:52;61.67;47.67;30.00
77354;PMS7003;66422;51.202;19.936;2024-03-02T10:51:12;62.00;44.00;29.00
77354;PMS7003;66422;51.202;19.936;2024-03-02T11:06:32;60.00;45.33;30.00
77354;PMS7003;66422;51.202;19.936;2024-03-02T11:21:58;65.00;45.50;30.00
77354;PMS7003;66422;51.202;19.936;2024-03-02T11:37:19;50.50;35.50;25.50
77354;PMS7003;66422;51.202;19.936;2024-03-02T11:52:42;55.00;44.00;27.00
77354;PMS7003;66422;51.202;19.936;2024-03-02T12:08:04;70.00;51.33;32.67
77354;PMS7003;66422;51.202;19.936;2024-03-02T12:23:28;32.33;21.00;13.67
77354;PMS7003;66422;51.202;19.936;2024-03-02T12:38:48;53.00;39.00;26.00
77354;PMS7003;66422;51.202;19.936;2024-03-02T12:54:08;52.00;38.00;25.00
77354;PMS7003;66422;51.202;19.936;2024-03-02T13:09:30;81.25;57.25;36.25
77354;PMS7003;66422;51.202;19.936;2024-03-02T13:24:51;64.33;37.33;2.67
77354;PMS7003;66422;51.202;19.936;2024-03-02T13:40:12;173.67;131.67;71.33
77354;PMS7003;66422;51.202;19.936;2024-03-02T13:55:37;122.00;107.00;55.00
77354;PMS7003;66422;51.202;19.936;2024-03-02T14:10:57;126.50;93.00;48.50
77354;PMS7003;66422;51.202;19.936;2024-03-02T14:26:19;185.33;129.67;66.00
77354;PMS7003;66422;51.202;19.936;2024-03-02T14:41:39;414.50;288.00;132.00
77354;PMS7003;66422;51.202;19.936;2024-03-02T14:56:59;264.00;194.00;92.50
77354;PMS7003;66422;51.202;19.936;2024-03-02T15:12:19;51.00;37.00;25.00
77354;PMS7003;66422;51.202;19.936;2024-03-02T15:27:39;63.67;48.00;30.00
77354;PMS7003;66422;51.202;19.936;2024-03-02T15:42:59;63.00;44.50;29.00
77354;PMS7003;66422;51.202;19.936;2024-03-02T15:58:19;65.00;47.00;31.33
77354;PMS7003;66422;51.202;19.936;2024-03-02T16:13:39;80.00;54.00;31.00
77354;PMS7003;66422;51.202;19.936;2024-03-02T16:28:59;70.00;49.00;30.00
77354;PMS7003;66422;51.202;19.936;2024-03-02T16:44:19;68.33;50.00;30.67
77354;PMS7003;66422;51.202;19.936;2024-03-02T16:59:39;92.00;62.00;34.00
77354;PMS7003;66422;51.202;19.936;2024-03-02T17:14:59;78.00;52.00;33.00
77354;PMS7003;66422;51.202;19.936;2024-03-02T17:30:19;66.00;50.00;30.50
77354;PMS7003;66422;51.202;19.936;2024-03-02T17:45:40;73.00;53.00;32.00
77354;PMS7003;66422;51.202;19.936;2024-03-02T18:01:00;85.00;61.00;36.00
77354;PMS7003;66422;51.202;19.936;2024-03-02T18:16:20;82.00;60.00;36.00
77354;PMS7003;66422;51.202;19.936;2024-03-02T18:31:39;85.00;56.00;34.00
77354;PMS7003;66422;51.202;19.936;2024-03-02T18:47:00;77.00;56.00;34.00
77354;PMS7003;66422;51.202;19.936;2024-03-02T19:02:19;87.00;62.00;38.00
77354;PMS7003;66422;51.202;19.936;2024-03-02T19:17:39;92.00;64.00;39.00
77354;PMS7003;66422;51.202;19.936;2024-03-02T19:32:59;79.00;56.00;34.00
77354;PMS7003;66422;51.202;19.936;2024-03-02T19:48:19;77.00;56.00;35.00
77354;PMS7003;66422;51.202;19.936;2024-03-02T20:03:39;137.50;98.50;54.00
77354;PMS7003;66422;51.202;19.936;2024-03-02T20:19:00;230.50;154.00;87.00
77354;PMS7003;66422;51.202;19.936;2024-03-02T20:34:20;174.00;117.00;66.00
77354;PMS7003;66422;51.202;19.936;2024-03-02T20:49:40;131.00;83.67;49.67
77354;PMS7003;66422;51.202;19.936;2024-03-02T21:05:02;129.00;103.00;60.00
77354;PMS7003;66422;51.202;19.936;2024-03-02T21:20:23;79.00;57.67;34.33
77354;PMS7003;66422;51.202;19.936;2024-03-02T21:35:42;83.33;57.33;37.00
77354;PMS7003;66422;51.202;19.936;2024-03-02T21:51:02;78.33;55.00;36.00
77354;PMS7003;66422;51.202;19.936;2024-03-02T22:06:22;69.00;49.50;31.00
77354;PMS7003;66422;51.202;19.936;2024-03-02T22:21:41;83.00;58.00;36.00
77354;PMS7003;66422;51.202;19.936;2024-03-02T22:37:01;99.00;74.00;43.00
77354;PMS7003;66422;51.202;19.936;2024-03-02T22:52:21;84.50;58.00;38.50
77354;PMS7003;66422;51.202;19.936;2024-03-02T23:07:41;69.33;50.67;31.67
77354;PMS7003;66422;51.202;19.936;2024-03-02T23:23:01;74.00;55.00;34.00
77354;PMS7003;66422;51.202;19.936;2024-03-02T23:38:23;72.00;53.00;32.67
77354;PMS7003;66422;51.202;19.936;2024-03-02T23:53:43;80.00;58.00;38.00
